sensor_id;sensor_type;location;lat;lon;timestamp;pressure;altitude;pressure_sealevel;temperature;humidity
78117;BME280;69042;59.120;37.904;2024-02-28T00:00:32;100701.34;;;3.80;66.71
78117;BME280;69042;59.120;37.904;2024-02-28T00:02:59;100705.66;;;3.79;66.33
78117;BME280;69042;59.120;37.904;2024-02-28T00:05:25;100691.91;;;3.72;66.58
78117;BME280;69042;59.120;37.904;2024-02-28T00:07:52;100692.78;;;3.70;66.08
78117;BME280;69042;59.120;37.904;2024-02-28T00:10:19;100691.91;;;3.66;66.07
78117;BME280;69042;59.120;37.904;2024-02-28T00:12:46;100696.25;;;3.63;66.70
78117;BME280;69042;59.120;37.904;2024-02-28T00:15:13;100682.47;;;3.59;66.21
78117;BME280;69042;59.120;37.904;2024-02-28T00:17:40;100681.63;;;3.59;66.60
78117;BME280;69042;59.120;37.904;2024-02-28T00:20:07;100673.88;;;3.55;66.48
78117;BME280;69042;59.120;37.904;2024-02-28T00:22:38;100674.75;;;3.54;66.85
78117;BME280;69042;59.120;37.904;2024-02-28T00:25:05;100663.56;;;3.48;66.32
78117;BME280;69042;59.120;37.904;2024-02-28T00:27:33;100660.13;;;3.50;66.85
78117;BME280;69042;59.120;37.904;2024-02-28T00:29:59;100666.16;;;3.49;66.39
78117;BME280;69042;59.120;37.904;2024-02-28T00:32:27;100673.06;;;3.47;66.80
78117;BME280;69042;59.120;37.904;2024-02-28T00:34:53;100661.91;;;3.41;66.26
78117;BME280;69042;59.120;37.904;2024-02-28T00:37:19;100663.59;;;3.43;66.73
78117;BME280;69042;59.120;37.904;2024-02-28T00:39:46;100666.22;;;3.40;66.96
78117;BME280;69042;59.120;37.904;2024-02-28T00:42:13;100658.44;;;3.39;67.02
78117;BME280;69042;59.120;37.904;2024-02-28T00:44:39;100652.44;;;3.38;66.47
78117;BME280;69042;59.120;37.904;2024-02-28T00:47:09;100654.13;;;3.39;67.12
78117;BME280;69042;59.120;37.904;2024-02-28T00:49:35;100652.44;;;3.38;66.70
78117;BME280;69042;59.120;37.904;2024-02-28T00:52:02;100660.19;;;3.38;67.19
78117;BME280;69042;59.120;37.904;2024-02-28T00:54:28;100650.69;;;3.37;67.05
78117;BME280;69042;59.120;37.904;2024-02-28T00:56:55;100654.13;;;3.39;66.71
78117;BME280;69042;59.120;37.904;2024-02-28T00:59:21;100658.44;;;3.42;67.29
78117;BME280;69042;59.120;37.904;2024-02-28T01:01:48;100649.81;;;3.40;67.29
78117;BME280;69042;59.120;37.904;2024-02-28T01:04:15;100651.53;;;3.42;67.43
78117;BME280;69042;59.120;37.904;2024-02-28T01:06:42;100651.53;;;3.47;67.61
78117;BME280;69042;59.120;37.904;2024-02-28T01:09:08;100648.09;;;3.49;66.98
78117;BME280;69042;59.120;37.904;2024-02-28T01:11:35;100648.03;;;3.57;67.31
78117;BME280;69042;59.120;37.904;2024-02-28T01:14:02;100642.84;;;3.60;66.66
78117;BME280;69042;59.120;37.904;2024-02-28T01:16:28;100635.94;;;3.64;67.36
78117;BME280;69042;59.120;37.904;2024-02-28T01:18:55;100641.94;;;3.70;66.61
78117;BME280;69042;59.120;37.904;2024-02-28T01:21:21;100653.09;;;3.75;67.04
78117;BME280;69042;59.120;37.904;2024-02-28T01:23:48;100643.63;;;3.78;66.87
78117;BME280;69042;59.120;37.904;2024-02-28T01:26:14;100643.63;;;3.78;66.29
78117;BME280;69042;59.120;37.904;2024-02-28T01:28:41;100640.19;;;3.77;66.63
78117;BME280;69042;59.120;37.904;2024-02-28T01:31:09;100635.00;;;3.77;66.47
78117;BME280;69042;59.120;37.904;2024-02-28T01:33:35;100633.28;;;3.78;66.67
78117;BME280;69042;59.120;37.904;2024-02-28T01:36:01;100627.25;;;3.79;66.87
78117;BME280;69042;59.120;37.904;2024-02-28T01:38:28;100629.84;;;3.77;66.52
78117;BME280;69042;59.120;37.904;2024-02-28T01:40:54;100633.28;;;3.79;66.32
78117;BME280;69042;59.120;37.904;2024-02-28T01:43:21;100632.44;;;3.77;66.50
78117;BME280;69042;59.120;37.904;2024-02-28T01:45:47;100638.47;;;3.76;66.58
78117;BME280;69042;59.120;37.904;2024-02-28T01:48:13;100630.75;;;3.70;66.60
78117;BME280;69042;59.120;37.904;2024-02-28T01:50:41;100634.19;;;3.70;66.70
78117;BME280;69042;59.120;37.904;2024-02-28T01:53:09;100635.94;;;3.62;66.30
78117;BME280;69042;59.120;37.904;2024-02-28T01:55:37;100635.97;;;3.59;66.36
78117;BME280;69042;59.120;37.904;2024-02-28T01:58:06;100623.94;;;3.52;66.47
78117;BME280;69042;59.120;37.904;2024-02-28T02:00:33;100620.53;;;3.45;66.68
78117;BME280;69042;59.120;37.904;2024-02-28T02:03:03;100628.28;;;3.45;66.90
78117;BME280;69042;59.120;37.904;2024-02-28T02:05:29;100626.56;;;3.46;66.95
78117;BME280;69042;59.120;37.904;2024-02-28T02:07:59;100627.41;;;3.46;66.93
78117;BME280;69042;59.120;37.904;2024-02-28T02:10:27;100623.94;;;3.49;66.65
78117;BME280;69042;59.120;37.904;2024-02-28T02:12:54;100621.38;;;3.49;66.70
78117;BME280;69042;59.120;37.904;2024-02-28T02:15:20;100629.13;;;3.50;67.30
78117;BME280;69042;59.120;37.904;2024-02-28T02:17:47;100625.69;;;3.48;66.78
78117;BME280;69042;59.120;37.904;2024-02-28T02:20:14;100629.13;;;3.47;67.25
78117;BME280;69042;59.120;37.904;2024-02-28T02:22:41;100623.13;;;3.47;67.59
78117;BME280;69042;59.120;37.904;2024-02-28T02:25:08;100625.72;;;3.47;66.89
78117;BME280;69042;59.120;37.904;2024-02-28T02:27:34;100619.69;;;3.43;67.41
78117;BME280;69042;59.120;37.904;2024-02-28T02:30:00;100620.53;;;3.44;67.59
78117;BME280;69042;59.120;37.904;2024-02-28T02:32:27;100615.38;;;3.42;67.07
78117;BME280;69042;59.120;37.904;2024-02-28T02:34:54;100612.78;;;3.45;67.74
78117;BME280;69042;59.120;37.904;2024-02-28T02:37:20;100611.94;;;3.45;67.82
78117;BME280;69042;59.120;37.904;2024-02-28T02:39:47;100606.78;;;3.45;67.48
78117;BME280;69042;59.120;37.904;2024-02-28T02:42:13;100611.06;;;3.44;67.39
78117;BME280;69042;59.120;37.904;2024-02-28T02:44:41;100611.06;;;3.44;67.29
78117;BME280;69042;59.120;37.904;2024-02-28T02:47:08;100603.34;;;3.43;67.49
78117;BME280;69042;59.120;37.904;2024-02-28T02:49:34;100602.44;;;3.44;67.39
78117;BME280;69042;59.120;37.904;2024-02-28T02:52:01;100605.88;;;3.44;67.62
78117;BME280;69042;59.120;37.904;2024-02-28T02:54:27;100602.47;;;3.47;67.72
78117;BME280;69042;59.120;37.904;2024-02-28T02:56:53;100605.03;;;3.45;67.88
78117;BME280;69042;59.120;37.904;2024-02-28T02:59:20;100604.16;;;3.49;67.57
78117;BME280;69042;59.120;37.904;2024-02-28T03:01:49;100601.56;;;3.49;67.66
78117;BME280;69042;59.120;37.904;2024-02-28T03:04:17;100605.00;;;3.51;68.12
78117;BME280;69042;59.120;37.904;2024-02-28T03:06:43;100604.13;;;3.51;68.15
78117;BME280;69042;59.120;37.904;2024-02-28T03:09:10;100595.53;;;3.49;68.20
78117;BME280;69042;59.120;37.904;2024-02-28T03:11:37;100600.69;;;3.49;67.87
78117;BME280;69042;59.120;37.904;2024-02-28T03:14:04;100596.41;;;3.49;67.58
78117;BME280;69042;59.120;37.904;2024-02-28T03:16:30;100595.53;;;3.50;67.89
78117;BME280;69042;59.120;37.904;2024-02-28T03:18:57;100582.63;;;3.50;68.05
78117;BME280;69042;59.120;37.904;2024-02-28T03:21:23;100583.47;;;3.52;68.05
78117;BME280;69042;59.120;37.904;2024-02-28T03:23:50;100583.47;;;3.52;67.39
78117;BME280;69042;59.120;37.904;2024-02-28T03:26:16;100575.75;;;3.49;68.00
78117;BME280;69042;59.120;37.904;2024-02-28T03:28:43;100586.06;;;3.51;68.23
78117;BME280;69042;59.120;37.904;2024-02-28T03:31:12;100591.25;;;3.49;67.92
78117;BME280;69042;59.120;37.904;2024-02-28T03:33:38;100590.38;;;3.46;68.10
78117;BME280;69042;59.120;37.904;2024-02-28T03:36:05;100586.94;;;3.50;67.75
78117;BME280;69042;59.120;37.904;2024-02-28T03:38:32;100589.50;;;3.48;67.95
78117;BME280;69042;59.120;37.904;2024-02-28T03:40:58;100595.53;;;3.49;67.71
78117;BME280;69042;59.120;37.904;2024-02-28T03:43:24;100592.13;;;3.45;67.26
78117;BME280;69042;59.120;37.904;2024-02-28T03:45:51;100592.97;;;3.46;67.91
78117;BME280;69042;59.120;37.904;2024-02-28T03:48:17;100586.09;;;3.42;67.63
78117;BME280;69042;59.120;37.904;2024-02-28T03:50:44;100586.13;;;3.39;67.46
78117;BME280;69042;59.120;37.904;2024-02-28T03:53:10;100579.25;;;3.34;68.15
78117;BME280;69042;59.120;37.904;2024-02-28T03:55:36;100580.97;;;3.32;67.68
78117;BME280;69042;59.120;37.904;2024-02-28T03:58:04;100575.84;;;3.29;67.66
78117;BME280;69042;59.120;37.904;2024-02-28T04:00:31;100586.16;;;3.28;68.37
78117;BME280;69042;59.120;37.904;2024-02-28T04:02:58;100582.75;;;3.24;68.00
78117;BME280;69042;59.120;37.904;2024-02-28T04:05:24;100580.19;;;3.23;68.36
78117;BME280;69042;59.120;37.904;2024-02-28T04:07:51;100597.38;;;3.24;67.63
78117;BME280;69042;59.120;37.904;2024-02-28T04:10:17;100593.97;;;3.20;67.54
78117;BME280;69042;59.120;37.904;2024-02-28T04:12:44;100604.31;;;3.16;68.15
78117;BME280;69042;59.120;37.904;2024-02-28T04:15:11;100605.19;;;3.11;68.47
78117;BME280;69042;59.120;37.904;2024-02-28T04:17:41;100597.44;;;3.05;68.24
78117;BME280;69042;59.120;37.904;2024-02-28T04:20:09;100601.75;;;3.03;68.24
78117;BME280;69042;59.120;37.904;2024-02-28T04:22:36;100607.78;;;3.05;67.76
78117;BME280;69042;59.120;37.904;2024-02-28T04:25:08;100612.94;;;3.05;68.17
78117;BME280;69042;59.120;37.904;2024-02-28T04:27:35;100609.50;;;3.03;68.57
78117;BME280;69042;59.120;37.904;2024-02-28T04:30:02;100619.84;;;3.05;67.98
78117;BME280;69042;59.120;37.904;2024-02-28T04:32:29;100611.22;;;3.03;68.15
78117;BME280;69042;59.120;37.904;2024-02-28T04:34:56;100605.22;;;2.99;67.95
78117;BME280;69042;59.120;37.904;2024-02-28T04:37:23;100612.97;;;3.01;67.76
78117;BME280;69042;59.120;37.904;2024-02-28T04:39:49;100603.50;;;3.03;68.33
78117;BME280;69042;59.120;37.904;2024-02-28T04:42:16;100608.69;;;3.00;68.37
78117;BME280;69042;59.120;37.904;2024-02-28T04:44:42;100616.38;;;3.07;68.24
78117;BME280;69042;59.120;37.904;2024-02-28T04:47:09;100612.06;;;3.08;68.20
78117;BME280;69042;59.120;37.904;2024-02-28T04:49:39;100614.69;;;3.06;68.41
78117;BME280;69042;59.120;37.904;2024-02-28T04:52:05;100619.81;;;3.09;68.63
78117;BME280;69042;59.120;37.904;2024-02-28T04:54:33;100612.06;;;3.08;68.74
78117;BME280;69042;59.120;37.904;2024-02-28T04:56:59;100618.94;;;3.10;68.20
78117;BME280;69042;59.120;37.904;2024-02-28T04:59:26;100606.06;;;3.07;68.60
78117;BME280;69042;59.120;37.904;2024-02-28T05:01:53;100608.63;;;3.10;68.33
78117;BME280;69042;59.120;37.904;2024-02-28T05:04:19;100608.63;;;3.12;69.04
78117;BME280;69042;59.120;37.904;2024-02-28T05:06:47;100619.78;;;3.17;68.73
78117;BME280;69042;59.120;37.904;2024-02-28T05:09:13;100617.19;;;3.17;68.59
78117;BME280;69042;59.120;37.904;2024-02-28T05:11:40;100612.94;;;3.13;68.40
78117;BME280;69042;59.120;37.904;2024-02-28T05:14:09;100608.63;;;3.12;68.06
78117;BME280;69042;59.120;37.904;2024-02-28T05:16:37;100604.31;;;3.08;68.68
78117;BME280;69042;59.120;37.904;2024-02-28T05:19:03;100619.81;;;3.16;67.99
78117;BME280;69042;59.120;37.904;2024-02-28T05:21:30;100626.69;;;3.17;68.02
78117;BME280;69042;59.120;37.904;2024-02-28T05:23:57;100623.22;;;3.15;68.01
78117;BME280;69042;59.120;37.904;2024-02-28T05:26:23;100627.53;;;3.19;67.96
78117;BME280;69042;59.120;37.904;2024-02-28T05:28:51;100630.13;;;3.19;68.11
78117;BME280;69042;59.120;37.904;2024-02-28T05:31:24;100632.69;;;3.17;68.76
78117;BME280;69042;59.120;37.904;2024-02-28T05:33:54;100624.09;;;3.17;68.47
78117;BME280;69042;59.120;37.904;2024-02-28T05:36:30;100623.25;;;3.16;68.73
78117;BME280;69042;59.120;37.904;2024-02-28T05:38:58;100636.97;;;3.20;68.29
78117;BME280;69042;59.120;37.904;2024-02-28T05:41:27;100634.41;;;3.23;68.56
78117;BME280;69042;59.120;37.904;2024-02-28T05:43:53;100636.13;;;3.25;68.79
78117;BME280;69042;59.120;37.904;2024-02-28T05:46:20;100639.56;;;3.26;68.01
78117;BME280;69042;59.120;37.904;2024-02-28T05:48:49;100645.59;;;3.25;68.18
78117;BME280;69042;59.120;37.904;2024-02-28T05:51:15;100633.53;;;3.24;67.81
78117;BME280;69042;59.120;37.904;2024-02-28T05:53:42;100631.81;;;3.23;68.30
78117;BME280;69042;59.120;37.904;2024-02-28T05:56:10;100629.22;;;3.26;68.69
78117;BME280;69042;59.120;37.904;2024-02-28T05:58:40;100625.78;;;3.27;68.33
78117;BME280;69042;59.120;37.904;2024-02-28T06:01:08;100634.38;;;3.33;68.68
78117;BME280;69042;59.120;37.904;2024-02-28T06:03:35;100618.88;;;3.32;68.35
78117;BME280;69042;59.120;37.904;2024-02-28T06:06:02;100624.88;;;3.37;68.42
78117;BME280;69042;59.120;37.904;2024-02-28T06:08:37;100630.03;;;3.45;68.31
78117;BME280;69042;59.120;37.904;2024-02-28T06:11:04;100622.25;;;3.49;68.33
78117;BME280;69042;59.120;37.904;2024-02-28T06:13:34;100615.34;;;3.50;67.88
78117;BME280;69042;59.120;37.904;2024-02-28T06:16:00;100617.06;;;3.52;68.35
78117;BME280;69042;59.120;37.904;2024-02-28T06:18:27;100624.78;;;3.59;68.16
78117;BME280;69042;59.120;37.904;2024-02-28T06:20:55;100611.84;;;3.55;68.25
78117;BME280;69042;59.120;37.904;2024-02-28T06:23:22;100625.63;;;3.58;67.86
78117;BME280;69042;59.120;37.904;2024-02-28T06:25:49;100617.03;;;3.57;68.22
78117;BME280;69042;59.120;37.904;2024-02-28T06:28:16;100619.59;;;3.62;68.04
78117;BME280;69042;59.120;37.904;2024-02-28T06:30:43;100604.94;;;3.64;68.21
78117;BME280;69042;59.120;37.904;2024-02-28T06:33:15;100604.91;;;3.67;67.99
78117;BME280;69042;59.120;37.904;2024-02-28T06:35:42;100611.81;;;3.69;68.16
78117;BME280;69042;59.120;37.904;2024-02-28T06:38:08;100610.06;;;3.67;68.16
78117;BME280;69042;59.120;37.904;2024-02-28T06:40:35;100615.25;;;3.67;67.84
78117;BME280;69042;59.120;37.904;2024-02-28T06:43:01;100619.59;;;3.65;67.69
78117;BME280;69042;59.120;37.904;2024-02-28T06:45:29;100617.88;;;3.61;67.75
78117;BME280;69042;59.120;37.904;2024-02-28T06:47:55;100627.38;;;3.59;67.91
78117;BME280;69042;59.120;37.904;2024-02-28T06:50:22;100627.34;;;3.55;68.17
78117;BME280;69042;59.120;37.904;2024-02-28T06:52:48;100624.81;;;3.52;67.66
78117;BME280;69042;59.120;37.904;2024-02-28T06:55:15;100623.13;;;3.45;67.79
78117;BME280;69042;59.120;37.904;2024-02-28T06:57:42;100618.81;;;3.41;67.70
78117;BME280;69042;59.120;37.904;2024-02-28T07:00:10;100618.81;;;3.41;68.17
78117;BME280;69042;59.120;37.904;2024-02-28T07:02:40;100624.84;;;3.42;68.24
78117;BME280;69042;59.120;37.904;2024-02-28T07:05:07;100628.28;;;3.44;67.91
78117;BME280;69042;59.120;37.904;2024-02-28T07:07:34;100629.13;;;3.46;68.20
78117;BME280;69042;59.120;37.904;2024-02-28T07:10:03;100626.56;;;3.46;67.83
78117;BME280;69042;59.120;37.904;2024-02-28T07:12:30;100626.53;;;3.49;67.44
78117;BME280;69042;59.120;37.904;2024-02-28T07:14:58;100627.41;;;3.49;68.11
78117;BME280;69042;59.120;37.904;2024-02-28T07:17:25;100636.88;;;3.52;68.09
78117;BME280;69042;59.120;37.904;2024-02-28T07:19:51;100627.38;;;3.51;67.94
78117;BME280;69042;59.120;37.904;2024-02-28T07:22:18;100626.53;;;3.50;67.79
78117;BME280;69042;59.120;37.904;2024-02-28T07:24:44;100631.69;;;3.55;67.62
78117;BME280;69042;59.120;37.904;2024-02-28T07:27:11;100632.50;;;3.62;67.99
78117;BME280;69042;59.120;37.904;2024-02-28T07:29:37;100633.34;;;3.67;68.34
78117;BME280;69042;59.120;37.904;2024-02-28T07:32:04;100634.16;;;3.73;68.24
78117;BME280;69042;59.120;37.904;2024-02-28T07:34:31;100630.69;;;3.78;68.08
78117;BME280;69042;59.120;37.904;2024-02-28T07:36:57;100616.91;;;3.75;67.29
78117;BME280;69042;59.120;37.904;2024-02-28T07:39:24;100619.50;;;3.77;68.04
78117;BME280;69042;59.120;37.904;2024-02-28T07:41:51;100625.50;;;3.84;68.08
78117;BME280;69042;59.120;37.904;2024-02-28T07:44:17;100618.56;;;3.92;68.03
78117;BME280;69042;59.120;37.904;2024-02-28T07:46:44;100627.16;;;3.92;67.69
78117;BME280;69042;59.120;37.904;2024-02-28T07:49:11;100640.88;;;4.02;67.45
78117;BME280;69042;59.120;37.904;2024-02-28T07:51:38;100630.53;;;4.02;67.45
78117;BME280;69042;59.120;37.904;2024-02-28T07:54:04;100635.69;;;4.07;67.34
78117;BME280;69042;59.120;37.904;2024-02-28T07:56:32;100639.97;;;4.12;67.21
78117;BME280;69042;59.120;37.904;2024-02-28T07:58:58;100643.41;;;4.14;67.21
78117;BME280;69042;59.120;37.904;2024-02-28T08:01:24;100638.19;;;4.16;67.61
78117;BME280;69042;59.120;37.904;2024-02-28T08:03:51;100640.81;;;4.14;66.80
78117;BME280;69042;59.120;37.904;2024-02-28T08:06:18;100639.03;;;4.16;67.34
78117;BME280;69042;59.120;37.904;2024-02-28T08:08:45;100637.34;;;4.15;67.16
78117;BME280;69042;59.120;37.904;2024-02-28T08:11:12;100632.16;;;4.17;67.23
78117;BME280;69042;59.120;37.904;2024-02-28T08:13:39;100631.25;;;4.23;67.04
78117;BME280;69042;59.120;37.904;2024-02-28T08:16:06;100635.50;;;4.30;67.41
78117;BME280;69042;59.120;37.904;2024-02-28T08:18:35;100623.38;;;4.36;67.13
78117;BME280;69042;59.120;37.904;2024-02-28T08:21:01;100647.44;;;4.48;67.00
78117;BME280;69042;59.120;37.904;2024-02-28T08:23:30;100641.34;;;4.55;67.18
78117;BME280;69042;59.120;37.904;2024-02-28T08:25:57;100643.06;;;4.54;66.67
78117;BME280;69042;59.120;37.904;2024-02-28T08:28:23;100650.00;;;4.49;66.79
78117;BME280;69042;59.120;37.904;2024-02-28T08:30:50;100654.38;;;4.44;66.48
78117;BME280;69042;59.120;37.904;2024-02-28T08:33:17;100658.75;;;4.34;65.96
78117;BME280;69042;59.120;37.904;2024-02-28T08:35:43;100652.81;;;4.20;66.21
78117;BME280;69042;59.120;37.904;2024-02-28T08:38:10;100653.72;;;4.17;66.75
78117;BME280;69042;59.120;37.904;2024-02-28T08:40:37;100651.16;;;4.14;66.36
78117;BME280;69042;59.120;37.904;2024-02-28T08:43:03;100651.97;;;4.16;66.54
78117;BME280;69042;59.120;37.904;2024-02-28T08:45:30;100654.56;;;4.18;66.57
78117;BME280;69042;59.120;37.904;2024-02-28T08:47:56;100651.13;;;4.16;66.50
78117;BME280;69042;59.120;37.904;2024-02-28T08:50:27;100654.59;;;4.13;66.28
78117;BME280;69042;59.120;37.904;2024-02-28T08:52:55;100644.31;;;4.06;66.70
78117;BME280;69042;59.120;37.904;2024-02-28T08:55:21;100656.38;;;4.10;66.51
78117;BME280;69042;59.120;37.904;2024-02-28T08:57:49;100654.66;;;4.04;65.90
78117;BME280;69042;59.120;37.904;2024-02-28T09:00:16;100657.28;;;3.98;66.59
78117;BME280;69042;59.120;37.904;2024-02-28T09:02:43;100659.00;;;3.97;66.46
78117;BME280;69042;59.120;37.904;2024-02-28T09:05:10;100657.31;;;3.96;66.16
78117;BME280;69042;59.120;37.904;2024-02-28T09:07:37;100656.44;;;3.97;66.67
78117;BME280;69042;59.120;37.904;2024-02-28T09:10:04;100658.16;;;3.99;66.60
78117;BME280;69042;59.120;37.904;2024-02-28T09:12:32;100659.88;;;4.00;66.90
78117;BME280;69042;59.120;37.904;2024-02-28T09:14:58;100662.41;;;4.03;66.36
78117;BME280;69042;59.120;37.904;2024-02-28T09:17:25;100653.81;;;4.01;66.21
78117;BME280;69042;59.120;37.904;2024-02-28T09:19:53;100662.41;;;4.06;66.51
78117;BME280;69042;59.120;37.904;2024-02-28T09:22:20;100667.56;;;4.09;66.50
78117;BME280;69042;59.120;37.904;2024-02-28T09:24:47;100668.41;;;4.11;66.89
78117;BME280;69042;59.120;37.904;2024-02-28T09:27:14;100669.22;;;4.17;66.32
78117;BME280;69042;59.120;37.904;2024-02-28T09:29:42;100665.72;;;4.25;66.54
78117;BME280;69042;59.120;37.904;2024-02-28T09:32:08;100667.38;;;4.32;66.44
78117;BME280;69042;59.120;37.904;2024-02-28T09:34:35;100672.53;;;4.40;66.65
78117;BME280;69042;59.120;37.904;2024-02-28T09:37:02;100670.66;;;4.52;66.85
78117;BME280;69042;59.120;37.904;2024-02-28T09:39:30;100676.59;;;4.67;66.71
78117;BME280;69042;59.120;37.904;2024-02-28T09:41:56;100675.69;;;4.72;66.49
78117;BME280;69042;59.120;37.904;2024-02-28T09:44:24;100678.25;;;4.74;66.25
78117;BME280;69042;59.120;37.904;2024-02-28T09:46:52;100668.81;;;4.71;66.21
78117;BME280;69042;59.120;37.904;2024-02-28T09:49:19;100670.41;;;4.82;66.10
78117;BME280;69042;59.120;37.904;2024-02-28T09:51:49;100666.91;;;4.89;66.30
78117;BME280;69042;59.120;37.904;2024-02-28T09:54:18;100669.44;;;4.95;66.33
78117;BME280;69042;59.120;37.904;2024-02-28T09:56:47;100664.13;;;5.06;66.08
78117;BME280;69042;59.120;37.904;2024-02-28T09:59:15;100669.22;;;5.13;65.95
78117;BME280;69042;59.120;37.904;2024-02-28T10:01:44;100669.22;;;5.16;65.68
78117;BME280;69042;59.120;37.904;2024-02-28T10:04:13;100666.63;;;5.16;65.64
78117;BME280;69042;59.120;37.904;2024-02-28T10:06:40;100668.31;;;5.17;65.68
78117;BME280;69042;59.120;37.904;2024-02-28T10:09:07;100663.16;;;5.17;65.53
78117;BME280;69042;59.120;37.904;2024-02-28T10:11:34;100679.59;;;5.15;65.14
78117;BME280;69042;59.120;37.904;2024-02-28T10:14:01;100671.00;;;5.11;65.66
78117;BME280;69042;59.120;37.904;2024-02-28T10:16:29;100673.59;;;5.08;65.47
78117;BME280;69042;59.120;37.904;2024-02-28T10:18:55;100674.50;;;5.07;65.17
78117;BME280;69042;59.120;37.904;2024-02-28T10:21:22;100674.50;;;5.06;65.23
78117;BME280;69042;59.120;37.904;2024-02-28T10:23:49;100672.75;;;5.06;64.93
78117;BME280;69042;59.120;37.904;2024-02-28T10:26:16;100678.84;;;5.02;64.81
78117;BME280;69042;59.120;37.904;2024-02-28T10:28:42;100677.97;;;5.03;65.09
78117;BME280;69042;59.120;37.904;2024-02-28T10:31:12;100671.91;;;5.04;65.33
78117;BME280;69042;59.120;37.904;2024-02-28T10:33:41;100683.13;;;5.08;64.99
78117;BME280;69042;59.120;37.904;2024-02-28T10:36:09;100670.16;;;5.09;65.52
78117;BME280;69042;59.120;37.904;2024-02-28T10:38:35;100675.19;;;5.20;65.54
78117;BME280;69042;59.120;37.904;2024-02-28T10:41:05;100674.28;;;5.24;65.32
78117;BME280;69042;59.120;37.904;2024-02-28T10:43:31;100665.63;;;5.30;65.26
78117;BME280;69042;59.120;37.904;2024-02-28T10:46:01;100672.47;;;5.34;65.19
78117;BME280;69042;59.120;37.904;2024-02-28T10:48:27;100675.88;;;5.37;65.02
78117;BME280;69042;59.120;37.904;2024-02-28T10:50:55;100679.31;;;5.38;65.31
78117;BME280;69042;59.120;37.904;2024-02-28T10:53:24;100677.69;;;5.31;65.08
78117;BME280;69042;59.120;37.904;2024-02-28T10:55:55;100688.09;;;5.29;65.02
78117;BME280;69042;59.120;37.904;2024-02-28T10:58:32;100685.53;;;5.25;64.91
78117;BME280;69042;59.120;37.904;2024-02-28T11:01:05;100680.41;;;5.18;64.85
78117;BME280;69042;59.120;37.904;2024-02-28T11:03:32;100679.59;;;5.13;64.84
78117;BME280;69042;59.120;37.904;2024-02-28T11:05:59;100684.81;;;5.10;64.97
78117;BME280;69042;59.120;37.904;2024-02-28T11:08:28;100688.34;;;5.03;65.00
78117;BME280;69042;59.120;37.904;2024-02-28T11:11:01;100684.06;;;4.97;65.07
78117;BME280;69042;59.120;37.904;2024-02-28T11:13:29;100687.50;;;4.99;65.11
78117;BME280;69042;59.120;37.904;2024-02-28T11:16:06;100685.78;;;5.00;65.20
78117;BME280;69042;59.120;37.904;2024-02-28T11:18:33;100690.09;;;4.99;65.31
78117;BME280;69042;59.120;37.904;2024-02-28T11:21:00;100695.28;;;4.99;65.42
78117;BME280;69042;59.120;37.904;2024-02-28T11:23:38;100697.91;;;4.98;65.54
78117;BME280;69042;59.120;37.904;2024-02-28T11:26:04;100690.13;;;4.96;65.63
78117;BME280;69042;59.120;37.904;2024-02-28T11:28:30;100701.28;;;5.03;65.58
78117;BME280;69042;59.120;37.904;2024-02-28T11:31:00;100698.69;;;5.05;65.68
78117;BME280;69042;59.120;37.904;2024-02-28T11:33:26;100698.69;;;5.05;65.40
78117;BME280;69042;59.120;37.904;2024-02-28T11:35:56;100697.81;;;5.07;65.57
78117;BME280;69042;59.120;37.904;2024-02-28T11:38:26;100709.03;;;5.08;65.63
78117;BME280;69042;59.120;37.904;2024-02-28T11:40:53;100707.31;;;5.07;65.54
78117;BME280;69042;59.120;37.904;2024-02-28T11:43:21;100709.09;;;5.00;65.15
78117;BME280;69042;59.120;37.904;2024-02-28T11:45:48;100708.31;;;4.93;65.36
78117;BME280;69042;59.120;37.904;2024-02-28T11:48:16;100702.31;;;4.85;65.46
78117;BME280;69042;59.120;37.904;2024-02-28T11:50:42;100710.97;;;4.84;65.78
78117;BME280;69042;59.120;37.904;2024-02-28T11:53:09;100712.72;;;4.80;65.79
78117;BME280;69042;59.120;37.904;2024-02-28T11:55:35;100717.00;;;4.82;65.76
78117;BME280;69042;59.120;37.904;2024-02-28T11:58:08;100710.13;;;4.82;66.03
78117;BME280;69042;59.120;37.904;2024-02-28T12:00:46;100713.56;;;4.83;65.92
78117;BME280;69042;59.120;37.904;2024-02-28T12:03:20;100713.59;;;4.79;65.91
78117;BME280;69042;59.120;37.904;2024-02-28T12:05:47;100707.56;;;4.79;65.97
78117;BME280;69042;59.120;37.904;2024-02-28T12:08:17;100709.28;;;4.80;66.17
78117;BME280;69042;59.120;37.904;2024-02-28T12:10:47;100702.41;;;4.77;66.47
78117;BME280;69042;59.120;37.904;2024-02-28T12:13:18;100706.69;;;4.80;66.35
78117;BME280;69042;59.120;37.904;2024-02-28T12:15:45;100710.09;;;4.84;66.35
78117;BME280;69042;59.120;37.904;2024-02-28T12:18:14;100712.69;;;4.87;66.41
78117;BME280;69042;59.120;37.904;2024-02-28T12:20:41;100709.16;;;4.92;66.46
78117;BME280;69042;59.120;37.904;2024-02-28T12:23:08;100709.97;;;4.97;66.48
78117;BME280;69042;59.120;37.904;2024-02-28T12:25:34;100716.88;;;5.00;66.59
78117;BME280;69042;59.120;37.904;2024-02-28T12:28:01;100711.69;;;5.00;66.32
78117;BME280;69042;59.120;37.904;2024-02-28T12:30:28;100717.72;;;4.97;66.06
78117;BME280;69042;59.120;37.904;2024-02-28T12:32:54;100717.72;;;4.97;66.52
78117;BME280;69042;59.120;37.904;2024-02-28T12:35:23;100721.25;;;4.93;66.31
78117;BME280;69042;59.120;37.904;2024-02-28T12:37:49;100725.53;;;4.93;66.48
78117;BME280;69042;59.120;37.904;2024-02-28T12:40:16;100719.53;;;4.91;66.53
78117;BME280;69042;59.120;37.904;2024-02-28T12:42:43;100720.41;;;4.90;66.78
78117;BME280;69042;59.120;37.904;2024-02-28T12:45:09;100715.22;;;4.91;66.69
78117;BME280;69042;59.120;37.904;2024-02-28T12:47:36;100719.50;;;4.94;66.88
78117;BME280;69042;59.120;37.904;2024-02-28T12:50:04;100726.44;;;4.93;66.42